Time;durP1;ratioP1;P1;durP2;ratioP2;P2;SDS_P1;SDS_P2;PMS_P1;PMS_P2;Temp;Humidity;BMP_temperature;BMP_pressure;BME280_temperature;BME280_humidity;BME280_pressure;Samples;Min_cycle;Max_cycle;Signal;HPM_P1;HPM_P2
2023/12/29 00:01:04;;;;;;;5.20;2.95;;;9.70;51.50;;;;;;5033052;28;20198;-84
2023/12/29 00:03:31;;;;;;;5.05;3.20;;;9.70;52.50;;;;;;5033318;28;20277;-81
2023/12/29 00:05:58;;;;;;;7.20;3.20;;;9.60;53.00;;;;;;5033275;28;20191;-82
2023/12/29 00:08:25;;;;;;;6.72;3.08;;;9.50;53.00;;;;;;5032798;28;20241;-82
2023/12/29 00:10:53;;;;;;;7.82;3.25;;;9.40;53.00;;;;;;5032810;28;20635;-82
2023/12/29 00:13:22;;;;;;;4.47;2.28;;;9.40;53.20;;;;;;5032886;28;20222;-82
2023/12/29 00:15:52;;;;;;;5.32;2.30;;;9.30;53.60;;;;;;5032767;28;20211;-82
2023/12/29 00:18:19;;;;;;;8.95;2.88;;;9.20;53.80;;;;;;5032712;28;20253;-85
2023/12/29 00:20:46;;;;;;;4.18;2.22;;;9.10;54.30;;;;;;5032261;28;20275;-82
2023/12/29 00:23:13;;;;;;;5.80;2.00;;;9.00;54.40;;;;;;5032769;28;20187;-83
2023/12/29 00:25:40;;;;;;;3.47;2.20;;;8.90;54.80;;;;;;5032754;28;20737;-84
2023/12/29 00:28:08;;;;;;;4.22;2.20;;;8.90;55.10;;;;;;5033163;28;20209;-83
2023/12/29 00:30:39;;;;;;;5.47;2.47;;;8.80;55.40;;;;;;5033006;28;20286;-83
2023/12/29 00:33:06;;;;;;;8.25;3.70;;;8.80;56.00;;;;;;5036403;28;20180;-82
2023/12/29 00:35:33;;;;;;;4.68;2.63;;;8.70;56.40;;;;;;5036834;28;20191;-84
2023/12/29 00:38:00;;;;;;;6.00;2.05;;;8.70;56.60;;;;;;5036556;28;20219;-81
2023/12/29 00:40:27;;;;;;;3.70;2.00;;;8.60;56.40;;;;;;5036726;28;20234;-82
2023/12/29 00:42:54;;;;;;;3.90;2.03;;;8.70;56.40;;;;;;5035633;28;20191;-82
2023/12/29 00:45:22;;;;;;;4.00;1.70;;;8.60;56.30;;;;;;5035943;28;20278;-82
2023/12/29 00:47:50;;;;;;;4.55;2.20;;;8.60;56.40;;;;;;5036713;28;20221;-81
2023/12/29 00:50:18;;;;;;;5.03;2.30;;;8.50;56.40;;;;;;5036464;28;20215;-81
2023/12/29 00:52:44;;;;;;;3.78;1.75;;;8.50;56.70;;;;;;5036537;28;20191;-81
2023/12/29 00:55:11;;;;;;;3.78;2.50;;;8.50;56.40;;;;;;5036492;28;20196;-82
2023/12/29 00:57:38;;;;;;;3.55;1.83;;;8.40;55.90;;;;;;5036550;28;20254;-81
2023/12/29 01:00:07;;;;;;;6.93;2.03;;;8.50;55.10;;;;;;5036314;28;20279;-82
2023/12/29 01:02:35;;;;;;;2.60;1.65;;;8.60;54.50;;;;;;5037036;28;20196;-81
2023/12/29 01:05:02;;;;;;;2.63;1.55;;;8.60;54.10;;;;;;5036399;28;20655;-81
2023/12/29 01:07:29;;;;;;;3.28;1.88;;;8.60;53.80;;;;;;5036363;28;20286;-82
2023/12/29 01:09:56;;;;;;;6.63;2.00;;;8.70;53.60;;;;;;5036354;28;20285;-81
2023/12/29 01:12:23;;;;;;;4.75;1.98;;;8.70;53.10;;;;;;5036674;28;20232;-82
2023/12/29 01:14:50;;;;;;;3.17;2.15;;;8.80;52.80;;;;;;5036394;28;20242;-83
2023/12/29 01:17:17;;;;;;;5.30;1.85;;;8.80;52.30;;;;;;5036501;28;20214;-82
2023/12/29 01:19:45;;;;;;;3.45;2.35;;;8.90;51.80;;;;;;5036567;28;20191;-81
2023/12/29 01:22:12;;;;;;;3.85;2.30;;;8.90;51.50;;;;;;5036169;28;20286;-82
2023/12/29 01:24:39;;;;;;;3.35;1.80;;;8.90;51.10;;;;;;5036015;28;20229;-81
2023/12/29 01:27:06;;;;;;;3.85;1.95;;;9.00;50.70;;;;;;5036400;28;20206;-81
2023/12/29 01:29:33;;;;;;;2.70;1.85;;;9.10;50.20;;;;;;5035986;28;20188;-82
2023/12/29 01:31:59;;;;;;;2.60;1.42;;;9.20;50.00;;;;;;5036383;28;20241;-81
2023/12/29 01:34:32;;;;;;;2.70;1.50;;;9.10;50.00;;;;;;5035981;28;20198;-81
2023/12/29 01:37:00;;;;;;;3.45;1.98;;;9.20;50.10;;;;;;5036250;28;20617;-81
2023/12/29 01:39:27;;;;;;;8.07;1.73;;;9.20;49.80;;;;;;5036227;28;20277;-80
2023/12/29 01:41:56;;;;;;;4.32;1.90;;;9.20;49.40;;;;;;5035784;28;20601;-80
2023/12/29 01:44:24;;;;;;;2.25;1.20;;;9.10;49.10;;;;;;5035800;28;20234;-80
2023/12/29 01:46:52;;;;;;;2.85;1.90;;;9.10;48.80;;;;;;5035592;28;20273;-80
2023/12/29 01:49:20;;;;;;;3.25;1.70;;;9.10;48.60;;;;;;5035345;28;20203;-80
2023/12/29 01:51:51;;;;;;;3.67;1.83;;;9.10;48.40;;;;;;5035835;28;20233;-80
2023/12/29 01:54:23;;;;;;;2.90;1.92;;;9.00;48.50;;;;;;5035984;28;20176;-80
2023/12/29 01:56:51;;;;;;;3.30;1.65;;;9.00;48.50;;;;;;5035913;28;20214;-80
2023/12/29 01:59:20;;;;;;;3.42;1.88;;;9.00;48.60;;;;;;5035838;28;20281;-80
2023/12/29 02:01:47;;;;;;;4.22;1.70;;;8.90;48.70;;;;;;5035516;28;20223;-80
2023/12/29 02:04:16;;;;;;;3.70;1.80;;;8.80;48.80;;;;;;5034999;28;20222;-80
2023/12/29 02:06:43;;;;;;;3.28;2.00;;;8.70;48.90;;;;;;5035807;28;20196;-80
2023/12/29 02:09:10;;;;;;;4.75;2.10;;;8.70;49.10;;;;;;5035149;28;20191;-80
2023/12/29 02:11:41;;;;;;;4.25;2.05;;;8.70;49.10;;;;;;5035537;28;20226;-81
2023/12/29 02:14:08;;;;;;;3.78;2.30;;;8.80;48.80;;;;;;5035774;28;20187;-81
2023/12/29 02:16:40;;;;;;;3.60;1.70;;;8.80;48.40;;;;;;5035203;28;20315;-81
2023/12/29 02:19:25;;;;;;;4.88;2.03;;;8.70;48.40;;;;;;5035158;28;20183;-81
2023/12/29 02:21:52;;;;;;;3.75;1.88;;;8.50;48.50;;;;;;5035389;28;20180;-81
2023/12/29 02:24:18;;;;;;;3.72;1.90;;;8.40;48.80;;;;;;5035038;28;20226;-81
2023/12/29 02:26:57;;;;;;;3.88;2.20;;;8.30;49.00;;;;;;5034905;28;20283;-81
2023/12/29 02:29:27;;;;;;;2.80;1.70;;;8.30;49.00;;;;;;5034964;28;20275;-81
2023/12/29 02:32:00;;;;;;;5.10;1.63;;;8.20;49.00;;;;;;5034480;28;20183;-81
2023/12/29 02:34:33;;;;;;;2.65;1.73;;;8.20;49.40;;;;;;5034484;28;20226;-81
2023/12/29 02:37:01;;;;;;;3.60;1.80;;;8.20;48.50;;;;;;5034286;28;20282;-81
2023/12/29 02:39:27;;;;;;;3.70;1.77;;;8.10;48.40;;;;;;5034653;28;20223;-81
2023/12/29 02:41:56;;;;;;;2.65;1.60;;;8.00;48.70;;;;;;5034709;28;20282;-81
2023/12/29 02:44:23;;;;;;;4.18;2.60;;;7.90;48.90;;;;;;5034967;28;20271;-82
2023/12/29 02:46:50;;;;;;;2.85;1.35;;;7.90;49.30;;;;;;5034605;28;20224;-82
2023/12/29 02:49:17;;;;;;;2.83;1.55;;;7.90;49.40;;;;;;5034978;28;20207;-82
2023/12/29 02:51:45;;;;;;;3.13;1.50;;;7.90;49.70;;;;;;5034697;28;20272;-82
2023/12/29 02:54:12;;;;;;;3.63;2.15;;;7.90;49.80;;;;;;5033914;28;20627;-82
2023/12/29 02:56:39;;;;;;;3.40;1.60;;;7.90;50.20;;;;;;5034110;28;20237;-82
2023/12/29 02:59:08;;;;;;;4.07;2.05;;;7.80;50.50;;;;;;5034744;28;20223;-82
2023/12/29 03:01:34;;;;;;;3.75;2.15;;;7.80;50.50;;;;;;5034451;28;20741;-82
2023/12/29 03:04:02;;;;;;;4.57;2.08;;;7.70;50.50;;;;;;5034588;28;20223;-82
2023/12/29 03:06:29;;;;;;;3.35;1.77;;;7.60;50.30;;;;;;5034605;28;20238;-83
2023/12/29 03:08:56;;;;;;;3.47;1.75;;;7.50;50.40;;;;;;5034513;28;20250;-82
2023/12/29 03:11:23;;;;;;;4.72;1.63;;;7.50;50.40;;;;;;5033898;28;20230;-82
2023/12/29 03:13:50;;;;;;;7.72;2.10;;;7.30;50.70;;;;;;5033988;28;20733;-82
2023/12/29 03:16:18;;;;;;;3.50;1.88;;;7.10;51.10;;;;;;5034417;28;20257;-83
2023/12/29 03:18:45;;;;;;;4.25;1.75;;;7.00;51.30;;;;;;5034127;28;20306;-82
2023/12/29 03:21:11;;;;;;;3.10;1.40;;;7.00;51.60;;;;;;5034201;28;20281;-82
2023/12/29 03:23:38;;;;;;;2.95;1.42;;;7.00;51.60;;;;;;5033356;28;20196;-83
2023/12/29 03:26:05;;;;;;;4.10;1.98;;;7.00;51.60;;;;;;5033980;28;20282;-83
2023/12/29 03:28:32;;;;;;;2.95;1.73;;;7.00;51.60;;;;;;5034125;28;20199;-83
2023/12/29 03:30:59;;;;;;;3.95;2.03;;;7.00;51.60;;;;;;5034126;28;20223;-82
2023/12/29 03:33:27;;;;;;;9.35;4.57;;;6.90;51.70;;;;;;5033902;28;20249;-83
2023/12/29 03:35:54;;;;;;;5.72;3.17;;;6.80;51.90;;;;;;5033943;28;20245;-82
2023/12/29 03:38:21;;;;;;;4.25;2.58;;;6.80;52.00;;;;;;5033674;28;20692;-82
2023/12/29 03:40:48;;;;;;;4.90;2.30;;;6.70;52.40;;;;;;5033691;28;20677;-82
2023/12/29 03:43:15;;;;;;;4.50;1.75;;;6.60;52.60;;;;;;5033855;28;20231;-81
2023/12/29 03:45:42;;;;;;;3.03;1.90;;;6.50;52.80;;;;;;5033602;28;20658;-83
2023/12/29 03:48:09;;;;;;;3.92;2.45;;;6.50;53.00;;;;;;5033349;28;20784;-82
2023/12/29 03:50:38;;;;;;;3.40;1.98;;;6.60;52.80;;;;;;5033513;28;20235;-83
2023/12/29 03:53:05;;;;;;;2.85;1.50;;;6.60;52.70;;;;;;5033101;28;20184;-82
2023/12/29 03:55:31;;;;;;;3.40;1.67;;;6.60;52.60;;;;;;5033716;28;20231;-83
2023/12/29 03:57:58;;;;;;;3.88;1.73;;;6.70;52.60;;;;;;5033265;28;20306;-82
2023/12/29 04:00:25;;;;;;;4.22;2.47;;;6.70;52.70;;;;;;5033681;28;20287;-83
2023/12/29 04:02:52;;;;;;;4.53;1.70;;;6.70;52.80;;;;;;5033666;28;20195;-83
2023/12/29 04:05:20;;;;;;;2.60;1.33;;;6.70;53.00;;;;;;5032982;28;20298;-83
2023/12/29 04:07:48;;;;;;;4.55;1.85;;;6.70;52.90;;;;;;5032813;28;20274;-83
2023/12/29 04:10:15;;;;;;;5.18;1.98;;;6.70;52.90;;;;;;5033492;28;20278;-83
2023/12/29 04:12:42;;;;;;;4.03;2.15;;;6.70;53.10;;;;;;5033119;28;20651;-84
2023/12/29 04:15:10;;;;;;;3.58;2.05;;;6.70;53.20;;;;;;5033092;28;20202;-83
2023/12/29 04:17:37;;;;;;;3.72;1.75;;;6.80;53.10;;;;;;5033082;28;20221;-83
2023/12/29 04:20:04;;;;;;;4.65;2.25;;;6.80;52.80;;;;;;5033360;28;20187;-83
2023/12/29 04:22:31;;;;;;;2.92;2.15;;;6.80;52.70;;;;;;5032663;28;20680;-83
2023/12/29 04:24:59;;;;;;;4.03;2.60;;;6.90;52.50;;;;;;5033101;28;20193;-82
2023/12/29 04:27:26;;;;;;;5.28;2.65;;;6.90;52.30;;;;;;5033247;28;20282;-82
2023/12/29 04:29:53;;;;;;;4.93;2.75;;;6.90;52.50;;;;;;5033022;28;20290;-82
2023/12/29 04:32:20;;;;;;;5.85;2.95;;;6.90;52.60;;;;;;5032883;28;20227;-82
2023/12/29 04:34:47;;;;;;;4.82;3.17;;;6.80;52.50;;;;;;5033184;28;20723;-82
2023/12/29 04:37:14;;;;;;;4.05;2.25;;;6.80;52.60;;;;;;5032843;28;20207;-82
2023/12/29 04:39:40;;;;;;;4.13;2.00;;;6.80;52.60;;;;;;5033247;28;20195;-82
2023/12/29 04:42:09;;;;;;;4.50;2.45;;;6.80;52.70;;;;;;5033127;28;20278;-82
2023/12/29 04:44:36;;;;;;;3.65;2.10;;;6.80;52.70;;;;;;5032827;28;20269;-82
2023/12/29 04:47:03;;;;;;;7.63;2.90;;;6.60;53.00;;;;;;5033101;28;20318;-82
2023/12/29 04:49:30;;;;;;;5.50;2.50;;;6.60;53.10;;;;;;5033117;28;20260;-82
2023/12/29 04:51:57;;;;;;;3.25;1.95;;;6.50;53.40;;;;;;5032449;28;20183;-82
2023/12/29 04:54:25;;;;;;;4.63;1.95;;;6.40;53.70;;;;;;5032537;28;20290;-82
2023/12/29 04:56:52;;;;;;;3.42;1.60;;;6.40;54.00;;;;;;5033044;28;20278;-82
2023/12/29 04:59:20;;;;;;;3.38;2.40;;;6.40;54.10;;;;;;5032919;28;20302;-82
2023/12/29 05:01:47;;;;;;;3.50;1.75;;;6.50;54.20;;;;;;5032659;28;20611;-82
2023/12/29 05:04:16;;;;;;;2.20;1.23;;;6.50;54.50;;;;;;5032952;28;20223;-82
2023/12/29 05:06:43;;;;;;;3.60;1.75;;;6.50;54.50;;;;;;5032612;28;20242;-82
2023/12/29 05:09:10;;;;;;;4.38;2.40;;;6.40;54.60;;;;;;5032849;28;20231;-82
2023/12/29 05:11:37;;;;;;;4.60;2.10;;;6.40;54.80;;;;;;5033123;28;20283;-83
2023/12/29 05:14:04;;;;;;;3.05;2.00;;;6.40;54.90;;;;;;5032746;28;20191;-83
2023/12/29 05:16:32;;;;;;;4.85;2.45;;;6.40;54.90;;;;;;5032465;28;20270;-82
2023/12/29 05:18:59;;;;;;;6.18;2.30;;;6.50;54.40;;;;;;5036329;28;20251;-83
2023/12/29 05:21:26;;;;;;;4.95;2.78;;;6.50;54.00;;;;;;5036360;28;20282;-83
2023/12/29 05:23:53;;;;;;;4.78;2.40;;;6.50;54.00;;;;;;5036245;28;20242;-82
2023/12/29 05:26:20;;;;;;;4.22;2.85;;;6.50;54.20;;;;;;5036304;28;20196;-82
2023/12/29 05:28:47;;;;;;;5.43;3.72;;;6.50;54.60;;;;;;5035897;28;20278;-83
2023/12/29 05:31:14;;;;;;;3.83;2.50;;;6.50;54.50;;;;;;5036159;28;20713;-82
2023/12/29 05:33:42;;;;;;;4.20;2.40;;;6.50;54.50;;;;;;5036407;28;20219;-82
2023/12/29 05:36:10;;;;;;;4.30;2.50;;;6.50;54.30;;;;;;5036398;28;20198;-82
2023/12/29 05:38:38;;;;;;;4.15;2.55;;;6.60;54.40;;;;;;5035798;28;20212;-82
2023/12/29 05:41:05;;;;;;;9.15;4.28;;;6.60;54.20;;;;;;5036308;28;20203;-82
2023/12/29 05:43:34;;;;;;;5.57;2.85;;;6.70;53.60;;;;;;5035825;28;20199;-82
2023/12/29 05:46:01;;;;;;;4.78;2.80;;;6.80;52.60;;;;;;5035659;28;20217;-82
2023/12/29 05:48:28;;;;;;;3.00;2.10;;;6.90;52.30;;;;;;5036197;28;20218;-83
2023/12/29 05:50:56;;;;;;;5.45;2.20;;;7.00;52.80;;;;;;5036115;28;20278;-82
2023/12/29 05:53:23;;;;;;;7.28;3.20;;;7.10;52.80;;;;;;5035672;28;20282;-82
2023/12/29 05:55:50;;;;;;;5.13;2.67;;;7.00;53.20;;;;;;5035626;28;20223;-83
2023/12/29 05:58:17;;;;;;;4.35;2.65;;;6.90;53.70;;;;;;5035233;28;20239;-82
2023/12/29 06:00:44;;;;;;;4.18;2.17;;;6.90;54.10;;;;;;5035667;28;20190;-83
2023/12/29 06:03:11;;;;;;;4.85;3.53;;;6.90;54.30;;;;;;5035844;28;20187;-83
2023/12/29 06:05:38;;;;;;;4.93;2.63;;;7.00;54.50;;;;;;5035154;28;20190;-81
2023/12/29 06:08:07;;;;;;;4.63;2.33;;;7.10;54.70;;;;;;5035097;28;20227;-82
2023/12/29 06:10:35;;;;;;;6.95;3.10;;;7.20;54.90;;;;;;5035836;28;20195;-82
2023/12/29 06:13:03;;;;;;;5.65;2.88;;;7.20;55.00;;;;;;5035389;28;20195;-83
2023/12/29 06:15:30;;;;;;;4.97;2.60;;;7.30;55.50;;;;;;5035364;28;20642;-83
2023/12/29 06:17:57;;;;;;;3.58;2.40;;;7.30;55.40;;;;;;5035589;28;20298;-83
2023/12/29 06:20:24;;;;;;;4.32;2.05;;;7.40;55.80;;;;;;5034780;28;20195;-83
2023/12/29 06:22:52;;;;;;;3.70;1.90;;;7.50;56.30;;;;;;5035112;28;20223;-83
2023/12/29 06:25:20;;;;;;;4.45;1.50;;;7.50;56.40;;;;;;5035422;28;20287;-82
2023/12/29 06:27:48;;;;;;;3.33;1.80;;;7.60;55.90;;;;;;5035070;28;20294;-82
2023/12/29 06:30:15;;;;;;;3.53;1.92;;;7.70;56.20;;;;;;5034064;28;20201;-82
2023/12/29 06:32:42;;;;;;;3.22;2.20;;;7.70;57.00;;;;;;5034662;28;20219;-82
2023/12/29 06:35:10;;;;;;;3.90;2.03;;;7.80;56.40;;;;;;5034878;28;20227;-82
2023/12/29 06:37:38;;;;;;;4.15;2.35;;;7.80;56.50;;;;;;5035381;28;20192;-83
2023/12/29 06:40:06;;;;;;;4.10;2.10;;;7.80;56.70;;;;;;5034994;28;20287;-82
2023/12/29 06:42:35;;;;;;;4.10;2.67;;;7.90;56.60;;;;;;5035150;28;20325;-82
2023/12/29 06:45:02;;;;;;;6.38;2.55;;;7.90;56.90;;;;;;5034789;28;20662;-82
2023/12/29 06:47:29;;;;;;;5.00;3.03;;;7.90;56.90;;;;;;5034735;28;20303;-83
2023/12/29 06:49:57;;;;;;;4.47;2.85;;;8.00;57.10;;;;;;5034782;28;20234;-83
2023/12/29 06:52:24;;;;;;;4.07;2.42;;;8.10;57.00;;;;;;5034788;28;20237;-82
2023/12/29 06:54:50;;;;;;;4.00;2.10;;;8.10;57.10;;;;;;5034868;28;20701;-83
2023/12/29 06:57:17;;;;;;;4.50;2.30;;;8.20;57.20;;;;;;5034832;28;20295;-83
2023/12/29 06:59:46;;;;;;;3.03;1.70;;;8.30;57.30;;;;;;5034603;28;20306;-84
2023/12/29 07:02:13;;;;;;;3.40;2.55;;;8.40;57.30;;;;;;5034235;28;20192;-82
2023/12/29 07:04:43;;;;;;;5.72;2.20;;;8.50;57.30;;;;;;5033090;28;20650;-82
2023/12/29 07:07:10;;;;;;;3.50;2.05;;;8.60;57.20;;;;;;5034602;28;20186;-83
2023/12/29 07:09:40;;;;;;;3.90;2.22;;;8.70;57.00;;;;;;5034367;28;20306;-83
2023/12/29 07:12:07;;;;;;;5.82;2.15;;;8.90;56.80;;;;;;5034243;28;20192;-83
2023/12/29 07:14:35;;;;;;;3.03;2.03;;;8.90;56.50;;;;;;5033849;28;20199;-83
2023/12/29 07:17:04;;;;;;;3.40;2.00;;;9.00;56.50;;;;;;5033963;28;20188;-83
2023/12/29 07:19:36;;;;;;;3.33;2.00;;;9.00;56.50;;;;;;5034152;28;20306;-81
2023/12/29 07:22:04;;;;;;;3.95;2.03;;;9.10;56.40;;;;;;5031580;28;20194;-83
2023/12/29 07:24:31;;;;;;;3.58;2.25;;;9.10;56.40;;;;;;5033074;28;20188;-82
2023/12/29 07:26:58;;;;;;;4.10;2.15;;;9.10;56.30;;;;;;5033536;28;20230;-81
2023/12/29 07:29:26;;;;;;;3.58;2.20;;;9.20;56.10;;;;;;5033565;28;20203;-81
2023/12/29 07:31:53;;;;;;;4.38;1.70;;;9.30;55.90;;;;;;5033517;28;20195;-81
2023/12/29 07:34:21;;;;;;;2.30;1.80;;;9.50;55.70;;;;;;5033381;28;20252;-81
2023/12/29 07:36:48;;;;;;;3.42;2.22;;;9.70;55.30;;;;;;5032780;28;20602;-82
2023/12/29 07:39:15;;;;;;;4.28;2.15;;;9.80;54.70;;;;;;5033234;28;20306;-81
2023/12/29 07:41:42;;;;;;;2.60;1.83;;;9.90;54.40;;;;;;5032689;28;20278;-81
2023/12/29 07:44:11;;;;;;;3.38;2.00;;;9.90;54.00;;;;;;5033128;28;20192;-81
2023/12/29 07:46:39;;;;;;;3.80;2.10;;;10.00;52.60;;;;;;5033288;28;20254;-83
2023/12/29 07:49:06;;;;;;;4.25;1.90;;;10.00;52.60;;;;;;5032804;28;20271;-81
2023/12/29 07:51:34;;;;;;;3.60;1.95;;;10.00;52.70;;;;;;5032232;28;20278;-82
2023/12/29 07:54:01;;;;;;;4.25;1.90;;;10.00;52.50;;;;;;5033141;28;20199;-81
2023/12/29 07:56:28;;;;;;;3.38;1.60;;;10.00;52.40;;;;;;5032819;28;20254;-81
2023/12/29 07:58:55;;;;;;;3.42;1.90;;;10.00;52.30;;;;;;5032886;28;20231;-81
2023/12/29 08:01:22;;;;;;;6.13;4.43;;;10.00;52.20;;;;;;5032758;28;20869;-81
2023/12/29 08:03:49;;;;;;;3.42;1.90;;;10.00;52.30;;;;;;5032725;28;20206;-81
2023/12/29 08:06:16;;;;;;;3.58;1.92;;;10.10;52.20;;;;;;5032441;28;20225;-81
2023/12/29 08:08:44;;;;;;;4.57;2.38;;;10.10;52.00;;;;;;5032411;28;20675;-82
2023/12/29 08:11:16;;;;;;;2.60;1.65;;;10.10;51.80;;;;;;5032334;28;20231;-82
2023/12/29 08:13:44;;;;;;;3.22;1.90;;;10.10;51.20;;;;;;5032556;28;20278;-82
2023/12/29 08:16:11;;;;;;;3.30;2.38;;;10.20;51.20;;;;;;5032395;28;20279;-81
2023/12/29 08:18:38;;;;;;;3.90;2.35;;;10.30;50.70;;;;;;5032613;28;20298;-82
2023/12/29 08:21:05;;;;;;;7.95;3.70;;;10.40;50.20;;;;;;5022519;28;20291;-82
2023/12/29 08:23:32;;;;;;;6.88;3.17;;;10.50;50.00;;;;;;5026633;28;20191;-81
2023/12/29 08:26:03;;;;;;;3.47;1.95;;;10.50;49.50;;;;;;5032011;28;20227;-81
2023/12/29 08:28:30;;;;;;;4.75;2.35;;;10.60;49.50;;;;;;5032244;28;20614;-81
2023/12/29 08:30:57;;;;;;;2.75;1.45;;;10.70;49.00;;;;;;5031693;28;20246;-82
2023/12/29 08:33:24;;;;;;;2.67;1.67;;;10.80;48.90;;;;;;5032018;28;20553;-83
2023/12/29 08:35:51;;;;;;;2.67;1.70;;;10.80;48.90;;;;;;5031214;28;20192;-83
2023/12/29 08:38:18;;;;;;;3.38;1.50;;;10.90;49.00;;;;;;5030967;28;20227;-83
2023/12/29 08:40:45;;;;;;;3.22;1.38;;;10.90;49.40;;;;;;5014260;28;20207;-83
2023/12/29 08:43:13;;;;;;;2.83;1.30;;;11.00;49.90;;;;;;5022460;28;20219;-82
2023/12/29 08:45:41;;;;;;;2.85;1.40;;;11.10;51.70;;;;;;5032089;28;20227;-84
2023/12/29 08:48:08;;;;;;;2.55;1.15;;;11.20;52.30;;;;;;5031014;28;20230;-83
2023/12/29 08:50:35;;;;;;;2.40;1.40;;;11.20;53.20;;;;;;5031320;28;20616;-82
2023/12/29 08:53:02;;;;;;;2.20;0.95;;;11.30;53.50;;;;;;5034165;28;20222;-82
2023/12/29 08:55:29;;;;;;;2.10;1.13;;;11.40;53.70;;;;;;5035574;28;20295;-81
2023/12/29 08:57:57;;;;;;;2.10;1.10;;;11.40;53.70;;;;;;5036054;28;20210;-83
2023/12/29 09:00:25;;;;;;;2.97;1.25;;;11.50;53.70;;;;;;5035255;28;20262;-83
2023/12/29 09:02:52;;;;;;;1.80;0.80;;;11.60;53.60;;;;;;5035826;28;20227;-83
2023/12/29 09:05:19;;;;;;;2.10;1.30;;;11.70;53.40;;;;;;5035583;28;20226;-84
2023/12/29 09:07:46;;;;;;;4.00;1.98;;;11.80;53.20;;;;;;5036016;28;20595;-83
2023/12/29 09:10:14;;;;;;;3.50;1.35;;;11.90;53.10;;;;;;5035446;28;20599;-82
2023/12/29 09:12:41;;;;;;;2.70;1.53;;;12.00;52.80;;;;;;5035943;28;20187;-83
2023/12/29 09:15:09;;;;;;;2.30;1.13;;;12.20;52.30;;;;;;5035391;28;20464;-83
2023/12/29 09:17:37;;;;;;;5.80;1.80;;;12.40;51.90;;;;;;5035660;28;20469;-83
2023/12/29 09:20:06;;;;;;;4.60;2.23;;;12.60;51.40;;;;;;5035134;28;20496;-82
2023/12/29 09:22:32;;;;;;;2.40;1.07;;;12.90;51.30;;;;;;5034982;28;20437;-83
2023/12/29 09:24:59;;;;;;;2.30;1.50;;;13.00;51.00;;;;;;5035654;28;20521;-83
2023/12/29 09:27:26;;;;;;;3.07;1.67;;;13.20;50.80;;;;;;5035581;28;20433;-83
2023/12/29 09:29:53;;;;;;;3.63;1.20;;;13.20;50.30;;;;;;5035770;28;20452;-83
2023/12/29 09:32:20;;;;;;;2.47;1.33;;;13.20;50.30;;;;;;5035132;28;20437;-83
2023/12/29 09:34:52;;;;;;;3.30;1.23;;;13.30;49.90;;;;;;5034749;28;20988;-82
2023/12/29 09:37:19;;;;;;;2.73;1.30;;;13.30;49.50;;;;;;5035206;28;20505;-82
2023/12/29 09:39:46;;;;;;;2.67;1.40;;;13.30;49.50;;;;;;5035362;28;20480;-82
2023/12/29 09:42:20;;;;;;;2.57;1.40;;;13.40;49.10;;;;;;5035258;28;20477;-82
2023/12/29 09:44:51;;;;;;;3.10;1.50;;;13.40;49.20;;;;;;5034824;28;20467;-81
2023/12/29 09:47:23;;;;;;;2.60;1.20;;;13.40;49.10;;;;;;5034749;28;20468;-82
2023/12/29 09:49:53;;;;;;;3.30;1.77;;;13.40;49.20;;;;;;5034592;28;20538;-83
2023/12/29 09:52:22;;;;;;;2.93;1.30;;;13.50;49.40;;;;;;5034507;28;20520;-83
2023/12/29 09:54:50;;;;;;;5.90;1.80;;;13.50;49.60;;;;;;5034019;28;20496;-83
2023/12/29 09:57:18;;;;;;;3.17;1.30;;;13.60;49.90;;;;;;5015104;28;20442;-84
2023/12/29 09:59:46;;;;;;;2.00;0.80;;;13.70;50.10;;;;;;5014674;28;20984;-82
2023/12/29 10:02:16;;;;;;;3.20;1.37;;;13.70;50.10;;;;;;5015613;28;20434;-83
2023/12/29 10:04:43;;;;;;;2.50;1.10;;;13.80;50.40;;;;;;5033573;28;20778;-83
2023/12/29 10:07:17;;;;;;;2.00;0.83;;;13.90;50.70;;;;;;5034883;28;20441;-83
2023/12/29 10:09:46;;;;;;;3.23;1.03;;;13.90;50.60;;;;;;5035492;28;20434;-82
2023/12/29 10:12:14;;;;;;;2.40;0.90;;;14.00;50.50;;;;;;5034692;28;20485;-85
2023/12/29 10:14:49;;;;;;;2.20;0.93;;;14.10;50.50;;;;;;5034012;28;20496;-83
2023/12/29 10:17:27;;;;;;;2.00;1.10;;;14.10;50.40;;;;;;5033496;28;20523;-84
2023/12/29 10:20:04;;;;;;;2.60;0.90;;;14.20;50.10;;;;;;5033854;28;20539;-84
2023/12/29 10:22:42;;;;;;;4.10;0.80;;;14.30;50.30;;;;;;5034213;28;20418;-84
2023/12/29 10:25:10;;;;;;;3.00;1.30;;;14.40;50.10;;;;;;5034092;28;20445;-83
2023/12/29 10:27:37;;;;;;;1.97;0.90;;;14.50;50.00;;;;;;5034296;28;20430;-84
2023/12/29 10:30:10;;;;;;;2.00;0.80;;;14.70;49.60;;;;;;5033956;28;20773;-84
2023/12/29 10:32:37;;;;;;;2.57;0.80;;;14.90;49.80;;;;;;5034514;28;20457;-85
2023/12/29 10:35:11;;;;;;;2.30;0.70;;;15.10;48.90;;;;;;5034375;28;20515;-84
2023/12/29 10:37:40;;;;;;;2.40;1.10;;;15.30;48.70;;;;;;5033812;28;20521;-84
2023/12/29 10:40:08;;;;;;;2.07;0.90;;;15.50;48.40;;;;;;5033761;28;21054;-84
2023/12/29 10:42:35;;;;;;;2.50;1.00;;;15.70;47.90;;;;;;5034239;28;20531;-83
2023/12/29 10:45:07;;;;;;;1.90;0.80;;;15.90;47.20;;;;;;5034267;28;20469;-84
2023/12/29 10:47:35;;;;;;;2.00;1.00;;;16.20;47.00;;;;;;5033778;28;20548;-84
2023/12/29 10:50:04;;;;;;;2.00;0.83;;;16.40;46.90;;;;;;5033972;28;20461;-84
2023/12/29 10:52:32;;;;;;;2.47;1.03;;;16.70;46.60;;;;;;5033264;28;20829;-86
2023/12/29 10:55:09;;;;;;;1.93;0.73;;;17.00;46.00;;;;;;5033469;28;20439;-86
2023/12/29 10:57:37;;;;;;;2.00;0.90;;;17.30;45.30;;;;;;5033129;28;20445;-85
2023/12/29 11:00:06;;;;;;;1.80;0.70;;;17.50;44.60;;;;;;5033508;28;20476;-84
2023/12/29 11:02:33;;;;;;;3.23;1.20;;;17.70;44.20;;;;;;5030580;28;20928;-86
2023/12/29 11:05:04;;;;;;;1.90;0.73;;;17.90;44.30;;;;;;5032759;28;20495;-88
2023/12/29 11:07:39;;;;;;;3.03;1.13;;;18.10;42.70;;;;;;5033281;28;20515;-88
2023/12/29 11:10:09;;;;;;;1.97;0.70;;;18.20;42.60;;;;;;5033291;28;20447;-87
2023/12/29 11:12:37;;;;;;;2.13;0.90;;;18.30;42.40;;;;;;5033262;28;20437;-87
2023/12/29 11:15:06;;;;;;;2.43;1.10;;;18.30;41.90;;;;;;5032016;28;20433;-84
2023/12/29 11:17:35;;;;;;;1.90;0.70;;;18.40;42.00;;;;;;5032871;28;20928;-88
2023/12/29 11:20:03;;;;;;;2.10;0.97;;;18.40;41.60;;;;;;5033322;28;20508;-87
2023/12/29 11:22:31;;;;;;;2.47;1.00;;;18.40;41.50;;;;;;5033430;28;20448;-84
2023/12/29 11:24:59;;;;;;;2.00;0.80;;;18.50;40.80;;;;;;5032957;28;20945;-86
2023/12/29 11:27:30;;;;;;;2.30;0.97;;;18.50;40.90;;;;;;5032628;28;20993;-85
2023/12/29 11:29:58;;;;;;;3.83;0.90;;;18.50;40.40;;;;;;5033440;28;20468;-85
2023/12/29 11:32:33;;;;;;;3.47;1.07;;;18.60;40.20;;;;;;5033235;28;20449;-85
2023/12/29 11:35:11;;;;;;;2.30;0.90;;;18.60;40.40;;;;;;5033146;28;20822;-85
2023/12/29 11:38:01;;;;;;;2.20;0.77;;;18.70;40.90;;;;;;5029771;28;20513;-82
2023/12/29 11:40:34;;;;;;;12.67;4.67;;;18.70;40.00;;;;;;5025315;28;20522;-89
2023/12/29 11:43:17;;;;;;;2.10;1.00;;;18.80;40.10;;;;;;5033094;28;20492;-92
2023/12/29 11:45:44;;;;;;;2.10;1.00;;;18.80;39.60;;;;;;5033125;28;20471;-91
2023/12/29 11:48:13;;;;;;;2.20;0.80;;;18.80;39.70;;;;;;5032383;28;20473;-91
2023/12/29 11:50:41;;;;;;;2.23;1.10;;;18.90;39.70;;;;;;5032113;28;20465;-92
2023/12/29 11:53:09;;;;;;;1.60;0.50;;;19.00;39.90;;;;;;5030279;28;20432;-87
2023/12/29 11:55:37;;;;;;;2.00;0.80;;;19.00;39.50;;;;;;5032509;28;20975;-87
2023/12/29 11:58:26;;;;;;;2.10;1.10;;;19.10;39.30;;;;;;5032444;28;20465;-88
2023/12/29 12:00:53;;;;;;;3.60;0.77;;;19.10;39.30;;;;;;5032715;28;20465;-85
2023/12/29 12:03:26;;;;;;;1.90;0.73;;;19.10;39.40;;;;;;5032568;28;20433;-85
2023/12/29 12:05:54;;;;;;;1.80;0.60;;;19.00;38.90;;;;;;5031951;28;20974;-90
2023/12/29 12:08:34;;;;;;;1.90;0.60;;;18.90;39.30;;;;;;5032044;28;20929;-86
2023/12/29 12:11:38;;;;;;;1.93;0.70;;;18.80;39.20;;;;;;5032332;28;20902;-85
2023/12/29 12:14:06;;;;;;;2.00;0.80;;;18.70;39.40;;;;;;5032372;28;20440;-84
2023/12/29 12:16:50;;;;;;;1.80;0.60;;;18.60;39.70;;;;;;5032683;28;20479;-85
2023/12/29 12:19:18;;;;;;;2.20;0.90;;;18.60;39.80;;;;;;5031706;28;20441;-83
2023/12/29 12:21:48;;;;;;;2.30;0.70;;;18.50;39.80;;;;;;5032611;28;20496;-85
2023/12/29 12:24:19;;;;;;;1.97;0.87;;;18.40;39.30;;;;;;5032175;28;20429;-87
2023/12/29 12:26:46;;;;;;;2.07;0.80;;;18.30;39.20;;;;;;5031628;28;20436;-86
2023/12/29 12:29:15;;;;;;;1.77;0.57;;;18.10;39.30;;;;;;5032052;28;20528;-84
2023/12/29 12:31:59;;;;;;;2.63;1.30;;;18.00;39.50;;;;;;5031680;28;20544;-83
2023/12/29 12:34:28;;;;;;;1.90;0.60;;;17.90;40.40;;;;;;5031984;28;20464;-82
2023/12/29 12:36:59;;;;;;;2.40;0.70;;;17.90;40.50;;;;;;5032330;28;20448;-83
2023/12/29 12:39:38;;;;;;;1.90;0.70;;;17.90;40.30;;;;;;5031752;28;20452;-82
2023/12/29 12:42:05;;;;;;;2.07;1.07;;;17.70;40.00;;;;;;5032262;28;20425;-82
2023/12/29 12:44:34;;;;;;;2.73;0.80;;;17.60;40.20;;;;;;5031490;28;20440;-83
2023/12/29 12:47:07;;;;;;;3.10;0.87;;;17.40;40.30;;;;;;5032291;28;20553;-83
2023/12/29 12:49:34;;;;;;;2.00;0.70;;;17.20;40.60;;;;;;5031866;28;20436;-85
2023/12/29 12:52:02;;;;;;;1.80;0.60;;;17.10;41.30;;;;;;5032078;28;20489;-85
2023/12/29 12:54:29;;;;;;;4.43;0.77;;;17.00;41.70;;;;;;5032051;28;20849;-84
2023/12/29 12:56:56;;;;;;;3.50;1.27;;;16.80;41.60;;;;;;5031674;28;20843;-84
2023/12/29 12:59:23;;;;;;;2.10;0.93;;;16.70;41.70;;;;;;5032056;28;20432;-84